sensor_id;sensor_type;location;lat;lon;timestamp;P1;durP1;ratioP1;P2;durP2;ratioP2
19509;SDS011;9896;42.486;26.506;2023-07-24T00:00:00;15.57;;;10.47;;
19509;SDS011;9896;42.486;26.506;2023-07-24T00:02:26;14.47;;;9.43;;
19509;SDS011;9896;42.486;26.506;2023-07-24T00:04:51;12.67;;;9.43;;
19509;SDS011;9896;42.486;26.506;2023-07-24T00:07:16;16.60;;;10.43;;
19509;SDS011;9896;42.486;26.506;2023-07-24T00:09:42;20.33;;;10.40;;
19509;SDS011;9896;42.486;26.506;2023-07-24T00:12:07;12.13;;;10.10;;
19509;SDS011;9896;42.486;26.506;2023-07-24T00:14:33;17.43;;;10.30;;
19509;SDS011;9896;42.486;26.506;2023-07-24T00:16:58;16.40;;;10.83;;
19509;SDS011;9896;42.486;26.506;2023-07-24T00:19:23;15.00;;;10.33;;
19509;SDS011;9896;42.486;26.506;2023-07-24T00:21:49;13.57;;;10.70;;
19509;SDS011;9896;42.486;26.506;2023-07-24T00:24:14;16.77;;;12.63;;
19509;SDS011;9896;42.486;26.506;2023-07-24T00:26:40;19.50;;;11.77;;
19509;SDS011;9896;42.486;26.506;2023-07-24T00:29:05;18.20;;;10.87;;
19509;SDS011;9896;42.486;26.506;2023-07-24T00:31:30;16.10;;;10.10;;
19509;SDS011;9896;42.486;26.506;2023-07-24T00:33:56;13.77;;;10.57;;
19509;SDS011;9896;42.486;26.506;2023-07-24T00:36:21;15.93;;;11.33;;
19509;SDS011;9896;42.486;26.506;2023-07-24T00:38:47;13.30;;;10.97;;
19509;SDS011;9896;42.486;26.506;2023-07-24T00:41:12;16.07;;;11.27;;
19509;SDS011;9896;42.486;26.506;2023-07-24T00:43:37;17.43;;;11.20;;
19509;SDS011;9896;42.486;26.506;2023-07-24T00:46:03;17.57;;;10.17;;
19509;SDS011;9896;42.486;26.506;2023-07-24T00:48:28;16.27;;;11.27;;
19509;SDS011;9896;42.486;26.506;2023-07-24T00:50:54;16.50;;;10.93;;
19509;SDS011;9896;42.486;26.506;2023-07-24T00:53:19;17.40;;;10.70;;
19509;SDS011;9896;42.486;26.506;2023-07-24T00:55:45;16.20;;;11.67;;
19509;SDS011;9896;42.486;26.506;2023-07-24T00:58:11;18.07;;;10.93;;
19509;SDS011;9896;42.486;26.506;2023-07-24T01:00:37;15.27;;;11.33;;
19509;SDS011;9896;42.486;26.506;2023-07-24T01:03:03;13.77;;;10.80;;
19509;SDS011;9896;42.486;26.506;2023-07-24T01:05:28;13.27;;;10.47;;
19509;SDS011;9896;42.486;26.506;2023-07-24T01:07:55;13.93;;;10.37;;
19509;SDS011;9896;42.486;26.506;2023-07-24T01:10:20;14.97;;;11.37;;
19509;SDS011;9896;42.486;26.506;2023-07-24T01:12:50;14.63;;;11.00;;
19509;SDS011;9896;42.486;26.506;2023-07-24T01:15:22;14.93;;;11.20;;
19509;SDS011;9896;42.486;26.506;2023-07-24T01:17:52;11.90;;;10.67;;
19509;SDS011;9896;42.486;26.506;2023-07-24T01:20:19;16.03;;;11.93;;
19509;SDS011;9896;42.486;26.506;2023-07-24T01:25:20;15.80;;;11.40;;
19509;SDS011;9896;42.486;26.506;2023-07-24T01:27:48;17.93;;;11.60;;
19509;SDS011;9896;42.486;26.506;2023-07-24T01:30:17;17.33;;;11.43;;
19509;SDS011;9896;42.486;26.506;2023-07-24T01:32:42;18.40;;;12.07;;
19509;SDS011;9896;42.486;26.506;2023-07-24T01:35:07;16.80;;;12.00;;
19509;SDS011;9896;42.486;26.506;2023-07-24T01:37:34;15.73;;;11.37;;
19509;SDS011;9896;42.486;26.506;2023-07-24T01:39:59;21.40;;;12.07;;
19509;SDS011;9896;42.486;26.506;2023-07-24T01:42:25;17.13;;;11.23;;
19509;SDS011;9896;42.486;26.506;2023-07-24T01:44:54;15.53;;;11.70;;
19509;SDS011;9896;42.486;26.506;2023-07-24T01:47:19;20.73;;;12.60;;
19509;SDS011;9896;42.486;26.506;2023-07-24T01:49:45;19.60;;;12.27;;
19509;SDS011;9896;42.486;26.506;2023-07-24T01:52:10;17.37;;;13.00;;
19509;SDS011;9896;42.486;26.506;2023-07-24T01:54:36;16.80;;;12.13;;
19509;SDS011;9896;42.486;26.506;2023-07-24T01:57:01;14.63;;;11.40;;
19509;SDS011;9896;42.486;26.506;2023-07-24T01:59:27;17.27;;;11.70;;
19509;SDS011;9896;42.486;26.506;2023-07-24T02:01:52;21.30;;;11.83;;
19509;SDS011;9896;42.486;26.506;2023-07-24T02:04:17;12.67;;;10.67;;
19509;SDS011;9896;42.486;26.506;2023-07-24T02:06:47;14.03;;;10.57;;
19509;SDS011;9896;42.486;26.506;2023-07-24T02:09:12;19.50;;;11.57;;
19509;SDS011;9896;42.486;26.506;2023-07-24T02:11:38;14.37;;;10.67;;
19509;SDS011;9896;42.486;26.506;2023-07-24T02:14:05;15.27;;;9.80;;
19509;SDS011;9896;42.486;26.506;2023-07-24T02:16:30;14.43;;;9.37;;
19509;SDS011;9896;42.486;26.506;2023-07-24T02:18:55;15.57;;;9.93;;
19509;SDS011;9896;42.486;26.506;2023-07-24T02:21:21;12.23;;;9.13;;
19509;SDS011;9896;42.486;26.506;2023-07-24T02:23:46;14.80;;;9.47;;
19509;SDS011;9896;42.486;26.506;2023-07-24T02:26:12;11.93;;;8.53;;
19509;SDS011;9896;42.486;26.506;2023-07-24T02:28:37;14.03;;;9.93;;
19509;SDS011;9896;42.486;26.506;2023-07-24T02:31:03;15.07;;;9.80;;
19509;SDS011;9896;42.486;26.506;2023-07-24T02:33:28;23.50;;;13.47;;
19509;SDS011;9896;42.486;26.506;2023-07-24T02:35:53;18.83;;;13.77;;
19509;SDS011;9896;42.486;26.506;2023-07-24T02:38:19;20.40;;;14.53;;
19509;SDS011;9896;42.486;26.506;2023-07-24T02:40:44;20.90;;;14.50;;
19509;SDS011;9896;42.486;26.506;2023-07-24T02:43:10;27.63;;;14.77;;
19509;SDS011;9896;42.486;26.506;2023-07-24T02:45:38;24.07;;;14.77;;
19509;SDS011;9896;42.486;26.506;2023-07-24T02:48:04;24.27;;;15.07;;
19509;SDS011;9896;42.486;26.506;2023-07-24T02:50:30;19.20;;;15.37;;
19509;SDS011;9896;42.486;26.506;2023-07-24T02:52:55;24.53;;;16.23;;
19509;SDS011;9896;42.486;26.506;2023-07-24T02:55:21;21.30;;;16.27;;
19509;SDS011;9896;42.486;26.506;2023-07-24T02:57:46;19.83;;;16.57;;
19509;SDS011;9896;42.486;26.506;2023-07-24T03:00:11;26.87;;;16.77;;
19509;SDS011;9896;42.486;26.506;2023-07-24T03:02:37;20.80;;;16.37;;
19509;SDS011;9896;42.486;26.506;2023-07-24T03:05:03;22.53;;;17.03;;
19509;SDS011;9896;42.486;26.506;2023-07-24T03:07:29;24.70;;;17.53;;
19509;SDS011;9896;42.486;26.506;2023-07-24T03:09:54;22.63;;;17.60;;
19509;SDS011;9896;42.486;26.506;2023-07-24T03:12:20;24.57;;;17.30;;
19509;SDS011;9896;42.486;26.506;2023-07-24T03:14:45;23.53;;;17.63;;
19509;SDS011;9896;42.486;26.506;2023-07-24T03:17:10;22.27;;;16.40;;
19509;SDS011;9896;42.486;26.506;2023-07-24T03:19:36;21.03;;;17.40;;
19509;SDS011;9896;42.486;26.506;2023-07-24T03:22:01;22.87;;;16.67;;
19509;SDS011;9896;42.486;26.506;2023-07-24T03:24:27;23.83;;;17.97;;
19509;SDS011;9896;42.486;26.506;2023-07-24T03:26:53;24.73;;;17.80;;
19509;SDS011;9896;42.486;26.506;2023-07-24T03:29:18;22.87;;;17.97;;
19509;SDS011;9896;42.486;26.506;2023-07-24T03:31:43;23.77;;;17.97;;
19509;SDS011;9896;42.486;26.506;2023-07-24T03:34:09;25.37;;;16.73;;
19509;SDS011;9896;42.486;26.506;2023-07-24T03:36:34;20.87;;;16.63;;
19509;SDS011;9896;42.486;26.506;2023-07-24T03:39:01;26.37;;;16.40;;
19509;SDS011;9896;42.486;26.506;2023-07-24T03:41:26;22.90;;;16.63;;
19509;SDS011;9896;42.486;26.506;2023-07-24T03:43:51;27.17;;;15.97;;
19509;SDS011;9896;42.486;26.506;2023-07-24T03:46:17;26.03;;;18.17;;
19509;SDS011;9896;42.486;26.506;2023-07-24T03:48:42;23.30;;;16.03;;
19509;SDS011;9896;42.486;26.506;2023-07-24T03:51:08;24.90;;;16.93;;
19509;SDS011;9896;42.486;26.506;2023-07-24T03:53:33;28.03;;;17.43;;
19509;SDS011;9896;42.486;26.506;2023-07-24T03:55:59;24.43;;;17.13;;
19509;SDS011;9896;42.486;26.506;2023-07-24T03:58:24;28.13;;;18.07;;
19509;SDS011;9896;42.486;26.506;2023-07-24T04:00:50;24.63;;;17.20;;
19509;SDS011;9896;42.486;26.506;2023-07-24T04:03:15;23.47;;;17.40;;
19509;SDS011;9896;42.486;26.506;2023-07-24T04:05:41;25.53;;;17.77;;
19509;SDS011;9896;42.486;26.506;2023-07-24T04:08:06;29.87;;;17.97;;
19509;SDS011;9896;42.486;26.506;2023-07-24T04:10:31;27.07;;;18.70;;
19509;SDS011;9896;42.486;26.506;2023-07-24T04:12:57;24.93;;;18.63;;
19509;SDS011;9896;42.486;26.506;2023-07-24T04:15:22;20.53;;;17.07;;
19509;SDS011;9896;42.486;26.506;2023-07-24T04:17:48;28.07;;;17.43;;
19509;SDS011;9896;42.486;26.506;2023-07-24T04:20:13;24.80;;;16.83;;
19509;SDS011;9896;42.486;26.506;2023-07-24T04:22:39;22.30;;;17.17;;
19509;SDS011;9896;42.486;26.506;2023-07-24T04:25:04;21.33;;;15.67;;
19509;SDS011;9896;42.486;26.506;2023-07-24T04:27:30;23.63;;;16.53;;
19509;SDS011;9896;42.486;26.506;2023-07-24T04:29:55;26.37;;;17.07;;
19509;SDS011;9896;42.486;26.506;2023-07-24T04:32:21;30.17;;;17.00;;
19509;SDS011;9896;42.486;26.506;2023-07-24T04:34:46;23.67;;;15.87;;
19509;SDS011;9896;42.486;26.506;2023-07-24T04:37:12;17.33;;;13.50;;
19509;SDS011;9896;42.486;26.506;2023-07-24T04:39:40;13.97;;;11.87;;
19509;SDS011;9896;42.486;26.506;2023-07-24T04:42:05;15.47;;;10.70;;
19509;SDS011;9896;42.486;26.506;2023-07-24T04:44:31;18.53;;;11.83;;
19509;SDS011;9896;42.486;26.506;2023-07-24T04:46:57;16.67;;;11.03;;
19509;SDS011;9896;42.486;26.506;2023-07-24T04:49:22;15.27;;;11.37;;
19509;SDS011;9896;42.486;26.506;2023-07-24T04:51:48;18.80;;;12.33;;
19509;SDS011;9896;42.486;26.506;2023-07-24T04:54:13;19.03;;;12.03;;
19509;SDS011;9896;42.486;26.506;2023-07-24T04:56:39;20.40;;;13.23;;
19509;SDS011;9896;42.486;26.506;2023-07-24T04:59:04;19.03;;;12.43;;
19509;SDS011;9896;42.486;26.506;2023-07-24T05:01:30;19.17;;;11.40;;
19509;SDS011;9896;42.486;26.506;2023-07-24T05:03:55;16.50;;;11.03;;
19509;SDS011;9896;42.486;26.506;2023-07-24T05:06:20;16.53;;;11.10;;
19509;SDS011;9896;42.486;26.506;2023-07-24T05:08:46;15.17;;;10.77;;
19509;SDS011;9896;42.486;26.506;2023-07-24T05:11:11;16.70;;;10.97;;
19509;SDS011;9896;42.486;26.506;2023-07-24T05:13:36;19.60;;;12.07;;
19509;SDS011;9896;42.486;26.506;2023-07-24T05:16:02;15.97;;;12.23;;
19509;SDS011;9896;42.486;26.506;2023-07-24T05:18:27;13.27;;;11.30;;
19509;SDS011;9896;42.486;26.506;2023-07-24T05:20:53;20.03;;;11.77;;
19509;SDS011;9896;42.486;26.506;2023-07-24T05:23:18;19.07;;;12.70;;
19509;SDS011;9896;42.486;26.506;2023-07-24T05:25:43;18.87;;;12.40;;
19509;SDS011;9896;42.486;26.506;2023-07-24T05:28:09;15.70;;;11.93;;
19509;SDS011;9896;42.486;26.506;2023-07-24T05:30:34;15.37;;;12.10;;
19509;SDS011;9896;42.486;26.506;2023-07-24T05:33:00;17.23;;;11.53;;
19509;SDS011;9896;42.486;26.506;2023-07-24T05:35:25;15.27;;;11.23;;
19509;SDS011;9896;42.486;26.506;2023-07-24T05:37:51;62.90;;;11.90;;
19509;SDS011;9896;42.486;26.506;2023-07-24T05:40:16;16.37;;;10.13;;
19509;SDS011;9896;42.486;26.506;2023-07-24T05:42:41;15.70;;;9.63;;
19509;SDS011;9896;42.486;26.506;2023-07-24T05:45:08;13.37;;;9.90;;
19509;SDS011;9896;42.486;26.506;2023-07-24T05:47:34;14.77;;;10.13;;
19509;SDS011;9896;42.486;26.506;2023-07-24T05:49:59;13.80;;;10.20;;
19509;SDS011;9896;42.486;26.506;2023-07-24T05:52:25;16.63;;;11.07;;
19509;SDS011;9896;42.486;26.506;2023-07-24T05:54:50;14.43;;;9.75;;
19509;SDS011;9896;42.486;26.506;2023-07-24T05:57:16;14.90;;;9.57;;
19509;SDS011;9896;42.486;26.506;2023-07-24T05:59:41;14.68;;;9.38;;
19509;SDS011;9896;42.486;26.506;2023-07-24T06:02:06;13.52;;;9.32;;
19509;SDS011;9896;42.486;26.506;2023-07-24T06:04:33;15.15;;;9.02;;
19509;SDS011;9896;42.486;26.506;2023-07-24T06:06:58;15.30;;;8.55;;
19509;SDS011;9896;42.486;26.506;2023-07-24T06:09:24;13.15;;;7.93;;
19509;SDS011;9896;42.486;26.506;2023-07-24T06:11:49;14.45;;;8.27;;
19509;SDS011;9896;42.486;26.506;2023-07-24T06:14:15;14.75;;;8.30;;
19509;SDS011;9896;42.486;26.506;2023-07-24T06:16:40;10.07;;;7.60;;
19509;SDS011;9896;42.486;26.506;2023-07-24T06:19:06;15.05;;;8.13;;
19509;SDS011;9896;42.486;26.506;2023-07-24T06:21:31;11.55;;;8.10;;
19509;SDS011;9896;42.486;26.506;2023-07-24T06:23:57;13.05;;;9.98;;
19509;SDS011;9896;42.486;26.506;2023-07-24T06:26:22;14.38;;;9.57;;
19509;SDS011;9896;42.486;26.506;2023-07-24T06:28:47;16.55;;;10.43;;
19509;SDS011;9896;42.486;26.506;2023-07-24T06:31:13;14.95;;;9.70;;
19509;SDS011;9896;42.486;26.506;2023-07-24T06:33:38;14.10;;;9.52;;
19509;SDS011;9896;42.486;26.506;2023-07-24T06:36:04;11.30;;;9.30;;
19509;SDS011;9896;42.486;26.506;2023-07-24T06:38:29;14.30;;;9.63;;
19509;SDS011;9896;42.486;26.506;2023-07-24T06:40:54;12.95;;;9.38;;
19509;SDS011;9896;42.486;26.506;2023-07-24T06:43:20;12.18;;;9.27;;
19509;SDS011;9896;42.486;26.506;2023-07-24T06:45:45;11.32;;;10.05;;
19509;SDS011;9896;42.486;26.506;2023-07-24T06:48:11;14.75;;;10.63;;
19509;SDS011;9896;42.486;26.506;2023-07-24T06:50:36;13.45;;;9.82;;
19509;SDS011;9896;42.486;26.506;2023-07-24T06:53:01;15.32;;;9.63;;
19509;SDS011;9896;42.486;26.506;2023-07-24T06:55:27;12.57;;;8.45;;
19509;SDS011;9896;42.486;26.506;2023-07-24T06:57:52;11.88;;;8.75;;
19509;SDS011;9896;42.486;26.506;2023-07-24T07:00:18;15.55;;;9.45;;
19509;SDS011;9896;42.486;26.506;2023-07-24T07:02:43;11.90;;;8.85;;
19509;SDS011;9896;42.486;26.506;2023-07-24T07:05:09;15.52;;;8.98;;
19509;SDS011;9896;42.486;26.506;2023-07-24T07:07:34;11.38;;;8.20;;
19509;SDS011;9896;42.486;26.506;2023-07-24T07:09:59;14.27;;;7.78;;
19509;SDS011;9896;42.486;26.506;2023-07-24T07:12:25;11.95;;;8.35;;
19509;SDS011;9896;42.486;26.506;2023-07-24T07:14:50;12.43;;;7.60;;
19509;SDS011;9896;42.486;26.506;2023-07-24T07:17:16;12.15;;;8.52;;
19509;SDS011;9896;42.486;26.506;2023-07-24T07:19:41;12.98;;;7.90;;
19509;SDS011;9896;42.486;26.506;2023-07-24T07:22:06;10.50;;;7.75;;
19509;SDS011;9896;42.486;26.506;2023-07-24T07:24:32;8.32;;;7.22;;
19509;SDS011;9896;42.486;26.506;2023-07-24T07:26:57;8.68;;;7.55;;
19509;SDS011;9896;42.486;26.506;2023-07-24T07:29:23;9.10;;;7.50;;
19509;SDS011;9896;42.486;26.506;2023-07-24T07:31:48;12.55;;;8.02;;
19509;SDS011;9896;42.486;26.506;2023-07-24T07:34:13;8.95;;;7.32;;
19509;SDS011;9896;42.486;26.506;2023-07-24T07:36:39;12.50;;;8.02;;
19509;SDS011;9896;42.486;26.506;2023-07-24T07:39:04;12.30;;;7.68;;
19509;SDS011;9896;42.486;26.506;2023-07-24T07:41:30;9.18;;;7.57;;
19509;SDS011;9896;42.486;26.506;2023-07-24T07:43:55;17.25;;;7.53;;
19509;SDS011;9896;42.486;26.506;2023-07-24T07:46:20;10.27;;;7.70;;
19509;SDS011;9896;42.486;26.506;2023-07-24T07:48:46;11.95;;;7.82;;
19509;SDS011;9896;42.486;26.506;2023-07-24T07:51:11;9.95;;;7.93;;
19509;SDS011;9896;42.486;26.506;2023-07-24T07:53:37;9.15;;;6.82;;
19509;SDS011;9896;42.486;26.506;2023-07-24T07:56:03;7.55;;;6.53;;
19509;SDS011;9896;42.486;26.506;2023-07-24T07:58:29;12.82;;;6.22;;
19509;SDS011;9896;42.486;26.506;2023-07-24T08:00:55;73.60;;;12.07;;
19509;SDS011;9896;42.486;26.506;2023-07-24T08:03:20;11.27;;;7.22;;
19509;SDS011;9896;42.486;26.506;2023-07-24T08:05:46;9.70;;;7.18;;
19509;SDS011;9896;42.486;26.506;2023-07-24T08:08:11;9.98;;;6.85;;
19509;SDS011;9896;42.486;26.506;2023-07-24T08:10:37;10.60;;;6.57;;
19509;SDS011;9896;42.486;26.506;2023-07-24T08:13:03;9.35;;;8.23;;
19509;SDS011;9896;42.486;26.506;2023-07-24T08:15:28;7.82;;;7.00;;
19509;SDS011;9896;42.486;26.506;2023-07-24T08:17:54;15.48;;;14.20;;
19509;SDS011;9896;42.486;26.506;2023-07-24T08:20:19;10.52;;;7.32;;
19509;SDS011;9896;42.486;26.506;2023-07-24T08:22:44;8.68;;;7.20;;
19509;SDS011;9896;42.486;26.506;2023-07-24T08:25:10;10.57;;;7.07;;
19509;SDS011;9896;42.486;26.506;2023-07-24T08:27:35;11.80;;;6.95;;
19509;SDS011;9896;42.486;26.506;2023-07-24T08:30:01;8.23;;;6.68;;
19509;SDS011;9896;42.486;26.506;2023-07-24T08:32:26;10.23;;;7.50;;
19509;SDS011;9896;42.486;26.506;2023-07-24T08:34:51;8.50;;;6.78;;
19509;SDS011;9896;42.486;26.506;2023-07-24T08:37:17;8.73;;;6.45;;
19509;SDS011;9896;42.486;26.506;2023-07-24T08:39:42;10.15;;;5.53;;
19509;SDS011;9896;42.486;26.506;2023-07-24T08:42:08;8.75;;;6.05;;
19509;SDS011;9896;42.486;26.506;2023-07-24T08:44:34;8.93;;;5.90;;
19509;SDS011;9896;42.486;26.506;2023-07-24T08:47:00;8.40;;;5.70;;
19509;SDS011;9896;42.486;26.506;2023-07-24T08:49:26;7.72;;;5.88;;
19509;SDS011;9896;42.486;26.506;2023-07-24T08:51:51;8.32;;;7.53;;
19509;SDS011;9896;42.486;26.506;2023-07-24T08:54:17;8.50;;;5.75;;
19509;SDS011;9896;42.486;26.506;2023-07-24T08:56:44;6.80;;;5.47;;
19509;SDS011;9896;42.486;26.506;2023-07-24T08:59:13;9.57;;;5.32;;
19509;SDS011;9896;42.486;26.506;2023-07-24T09:01:39;52.63;;;18.05;;
19509;SDS011;9896;42.486;26.506;2023-07-24T09:04:04;29.65;;;13.70;;
19509;SDS011;9896;42.486;26.506;2023-07-24T09:06:30;6.82;;;4.95;;
19509;SDS011;9896;42.486;26.506;2023-07-24T09:08:55;52.72;;;10.00;;
19509;SDS011;9896;42.486;26.506;2023-07-24T09:11:20;7.03;;;4.20;;
19509;SDS011;9896;42.486;26.506;2023-07-24T09:13:46;7.75;;;4.15;;
19509;SDS011;9896;42.486;26.506;2023-07-24T09:16:24;5.07;;;4.43;;
19509;SDS011;9896;42.486;26.506;2023-07-24T09:18:50;38.47;;;13.35;;
19509;SDS011;9896;42.486;26.506;2023-07-24T09:21:28;8.88;;;6.38;;
19509;SDS011;9896;42.486;26.506;2023-07-24T09:23:53;9.63;;;6.10;;
19509;SDS011;9896;42.486;26.506;2023-07-24T09:26:19;32.05;;;15.10;;
19509;SDS011;9896;42.486;26.506;2023-07-24T09:28:51;9.10;;;7.60;;
19509;SDS011;9896;42.486;26.506;2023-07-24T09:31:16;5.85;;;5.35;;
19509;SDS011;9896;42.486;26.506;2023-07-24T09:33:42;6.43;;;5.90;;
19509;SDS011;9896;42.486;26.506;2023-07-24T09:36:09;6.70;;;3.90;;
19509;SDS011;9896;42.486;26.506;2023-07-24T09:38:35;6.72;;;4.65;;
19509;SDS011;9896;42.486;26.506;2023-07-24T09:41:01;25.90;;;16.30;;
19509;SDS011;9896;42.486;26.506;2023-07-24T09:43:27;9.20;;;6.53;;
19509;SDS011;9896;42.486;26.506;2023-07-24T09:45:52;8.10;;;5.72;;
19509;SDS011;9896;42.486;26.506;2023-07-24T09:48:19;24.50;;;11.73;;
19509;SDS011;9896;42.486;26.506;2023-07-24T09:50:46;33.83;;;9.88;;
19509;SDS011;9896;42.486;26.506;2023-07-24T09:53:18;466.02;;;54.70;;
19509;SDS011;9896;42.486;26.506;2023-07-24T09:55:58;52.53;;;16.00;;
19509;SDS011;9896;42.486;26.506;2023-07-24T09:58:24;207.65;;;39.92;;
19509;SDS011;9896;42.486;26.506;2023-07-24T10:00:49;94.72;;;43.83;;
19509;SDS011;9896;42.486;26.506;2023-07-24T10:03:15;35.10;;;21.13;;
19509;SDS011;9896;42.486;26.506;2023-07-24T10:05:41;47.35;;;19.92;;
19509;SDS011;9896;42.486;26.506;2023-07-24T10:08:08;51.20;;;21.17;;
19509;SDS011;9896;42.486;26.506;2023-07-24T10:10:33;26.42;;;12.27;;
19509;SDS011;9896;42.486;26.506;2023-07-24T10:12:59;20.02;;;15.77;;
19509;SDS011;9896;42.486;26.506;2023-07-24T10:15:25;45.83;;;34.95;;
19509;SDS011;9896;42.486;26.506;2023-07-24T10:18:00;107.05;;;58.05;;
19509;SDS011;9896;42.486;26.506;2023-07-24T10:20:32;43.55;;;29.80;;
19509;SDS011;9896;42.486;26.506;2023-07-24T10:23:00;30.98;;;14.32;;
19509;SDS011;9896;42.486;26.506;2023-07-24T10:25:28;157.90;;;84.55;;
19509;SDS011;9896;42.486;26.506;2023-07-24T10:27:53;157.10;;;141.50;;
19509;SDS011;9896;42.486;26.506;2023-07-24T10:30:27;235.27;;;172.65;;
19509;SDS011;9896;42.486;26.506;2023-07-24T10:32:53;889.03;;;805.05;;
19509;SDS011;9896;42.486;26.506;2023-07-24T10:35:18;1820.20;;;721.85;;
19509;SDS011;9896;42.486;26.506;2023-07-24T10:37:46;101.82;;;54.67;;
19509;SDS011;9896;42.486;26.506;2023-07-24T10:40:18;23.92;;;13.60;;
19509;SDS011;9896;42.486;26.506;2023-07-24T10:42:44;8.45;;;6.45;;
19509;SDS011;9896;42.486;26.506;2023-07-24T10:45:09;9.75;;;5.60;;
19509;SDS011;9896;42.486;26.506;2023-07-24T10:47:35;20.27;;;12.27;;
19509;SDS011;9896;42.486;26.506;2023-07-24T10:50:01;21.67;;;16.00;;
19509;SDS011;9896;42.486;26.506;2023-07-24T10:52:30;57.05;;;43.65;;
19509;SDS011;9896;42.486;26.506;2023-07-24T10:55:01;22.38;;;13.55;;
19509;SDS011;9896;42.486;26.506;2023-07-24T10:57:27;47.22;;;12.55;;
19509;SDS011;9896;42.486;26.506;2023-07-24T10:59:53;7.10;;;5.70;;
19509;SDS011;9896;42.486;26.506;2023-07-24T11:02:18;74.65;;;15.55;;
19509;SDS011;9896;42.486;26.506;2023-07-24T11:04:43;122.50;;;30.92;;
19509;SDS011;9896;42.486;26.506;2023-07-24T11:07:09;26.67;;;12.85;;
19509;SDS011;9896;42.486;26.506;2023-07-24T11:09:35;89.40;;;19.05;;
19509;SDS011;9896;42.486;26.506;2023-07-24T11:12:08;53.28;;;11.13;;
19509;SDS011;9896;42.486;26.506;2023-07-24T11:14:34;9.48;;;7.95;;
19509;SDS011;9896;42.486;26.506;2023-07-24T11:16:59;16.85;;;11.20;;
19509;SDS011;9896;42.486;26.506;2023-07-24T11:19:25;6.55;;;5.18;;
19509;SDS011;9896;42.486;26.506;2023-07-24T11:21:50;13.95;;;9.60;;
19509;SDS011;9896;42.486;26.506;2023-07-24T11:24:17;7.60;;;6.90;;
19509;SDS011;9896;42.486;26.506;2023-07-24T11:26:42;167.50;;;46.63;;
19509;SDS011;9896;42.486;26.506;2023-07-24T11:29:11;78.13;;;58.55;;
19509;SDS011;9896;42.486;26.506;2023-07-24T11:31:37;62.78;;;57.13;;
19509;SDS011;9896;42.486;26.506;2023-07-24T11:34:04;276.20;;;246.82;;
19509;SDS011;9896;42.486;26.506;2023-07-24T11:36:30;564.83;;;464.20;;
19509;SDS011;9896;42.486;26.506;2023-07-24T11:38:55;376.80;;;293.05;;
19509;SDS011;9896;42.486;26.506;2023-07-24T11:41:20;291.17;;;214.73;;
19509;SDS011;9896;42.486;26.506;2023-07-24T11:43:47;656.85;;;554.50;;
19509;SDS011;9896;42.486;26.506;2023-07-24T11:46:21;1505.75;;;927.67;;
19509;SDS011;9896;42.486;26.506;2023-07-24T11:48:47;1718.13;;;983.28;;
19509;SDS011;9896;42.486;26.506;2023-07-24T11:51:13;1999.90;;;999.90;;
19509;SDS011;9896;42.486;26.506;2023-07-24T11:53:39;1999.90;;;879.03;;
19509;SDS011;9896;42.486;26.506;2023-07-24T11:56:12;1999.90;;;754.75;;
19509;SDS011;9896;42.486;26.506;2023-07-24T11:58:38;1999.90;;;577.35;;
19509;SDS011;9896;42.486;26.506;2023-07-24T12:01:03;1999.90;;;999.90;;
19509;SDS011;9896;42.486;26.506;2023-07-24T12:03:28;1999.90;;;999.90;;
19509;SDS011;9896;42.486;26.506;2023-07-24T12:05:54;1999.90;;;999.90;;
19509;SDS011;9896;42.486;26.506;2023-07-24T12:08:20;1999.90;;;999.90;;
19509;SDS011;9896;42.486;26.506;2023-07-24T12:10:48;1999.90;;;999.90;;
19509;SDS011;9896;42.486;26.506;2023-07-24T12:13:14;1999.90;;;999.90;;
19509;SDS011;9896;42.486;26.506;2023-07-24T12:15:40;1108.72;;;123.03;;
19509;SDS011;9896;42.486;26.506;2023-07-24T12:18:05;1999.90;;;574.28;;
19509;SDS011;9896;42.486;26.506;2023-07-24T12:20:31;1999.90;;;999.90;;
19509;SDS011;9896;42.486;26.506;2023-07-24T12:22:56;1999.90;;;895.60;;
19509;SDS011;9896;42.486;26.506;2023-07-24T12:25:22;1999.90;;;394.30;;
19509;SDS011;9896;42.486;26.506;2023-07-24T12:27:48;1999.90;;;999.90;;
19509;SDS011;9896;42.486;26.506;2023-07-24T12:30:13;1999.90;;;999.90;;
19509;SDS011;9896;42.486;26.506;2023-07-24T12:32:39;1999.90;;;999.90;;
19509;SDS011;9896;42.486;26.506;2023-07-24T12:35:04;1999.90;;;999.90;;
19509;SDS011;9896;42.486;26.506;2023-07-24T12:37:30;1999.90;;;999.90;;
19509;SDS011;9896;42.486;26.506;2023-07-24T12:39:55;1999.90;;;999.90;;
19509;SDS011;9896;42.486;26.506;2023-07-24T12:42:21;1999.90;;;999.90;;
19509;SDS011;9896;42.486;26.506;2023-07-24T12:44:46;1999.90;;;999.90;;
19509;SDS011;9896;42.486;26.506;2023-07-24T12:47:12;1999.90;;;999.90;;
19509;SDS011;9896;42.486;26.506;2023-07-24T12:49:37;1999.90;;;999.90;;
19509;SDS011;9896;42.486;26.506;2023-07-24T12:52:03;1999.90;;;999.90;;
19509;SDS011;9896;42.486;26.506;2023-07-24T12:54:29;1999.90;;;999.90;;
19509;SDS011;9896;42.486;26.506;2023-07-24T12:56:54;1999.90;;;999.90;;
19509;SDS011;9896;42.486;26.506;2023-07-24T12:59:20;1999.90;;;999.90;;
19509;SDS011;9896;42.486;26.506;2023-07-24T13:01:45;1999.90;;;999.90;;
19509;SDS011;9896;42.486;26.506;2023-07-24T13:04:11;1999.90;;;999.90;;
19509;SDS011;9896;42.486;26.506;2023-07-24T13:06:36;1999.90;;;999.90;;
19509;SDS011;9896;42.486;26.506;2023-07-24T13:09:02;1999.90;;;999.90;;
19509;SDS011;9896;42.486;26.506;2023-07-24T13:11:28;1999.90;;;999.90;;
19509;SDS011;9896;42.486;26.506;2023-07-24T13:13:54;1999.90;;;999.90;;
19509;SDS011;9896;42.486;26.506;2023-07-24T13:16:19;1999.90;;;999.90;;
19509;SDS011;9896;42.486;26.506;2023-07-24T13:18:45;1999.90;;;999.90;;
19509;SDS011;9896;42.486;26.506;2023-07-24T13:21:10;1999.90;;;999.90;;
19509;SDS011;9896;42.486;26.506;2023-07-24T13:23:36;1999.90;;;999.90;;
19509;SDS011;9896;42.486;26.506;2023-07-24T13:26:01;1999.90;;;999.90;;
19509;SDS011;9896;42.486;26.506;2023-07-24T13:28:27;1999.90;;;999.90;;
19509;SDS011;9896;42.486;26.506;2023-07-24T13:30:52;1999.90;;;999.90;;
19509;SDS011;9896;42.486;26.506;2023-07-24T13:33:18;1999.90;;;999.90;;
19509;SDS011;9896;42.486;26.506;2023-07-24T13:35:44;1999.90;;;999.90;;
19509;SDS011;9896;42.486;26.506;2023-07-24T13:38:09;1999.90;;;999.90;;
19509;SDS011;9896;42.486;26.506;2023-07-24T13:40:35;1999.90;;;999.90;;
19509;SDS011;9896;42.486;26.506;2023-07-24T13:43:01;1999.90;;;999.90;;
19509;SDS011;9896;42.486;26.506;2023-07-24T13:45:27;1999.90;;;999.90;;
19509;SDS011;9896;42.486;26.506;2023-07-24T13:47:53;1999.90;;;999.90;;
19509;SDS011;9896;42.486;26.506;2023-07-24T13:50:18;1999.90;;;999.90;;
19509;SDS011;9896;42.486;26.506;2023-07-24T13:52:43;1999.90;;;999.90;;
19509;SDS011;9896;42.486;26.506;2023-07-24T13:55:09;1999.90;;;999.90;;
19509;SDS011;9896;42.486;26.506;2023-07-24T13:57:34;1999.90;;;999.90;;
19509;SDS011;9896;42.486;26.506;2023-07-24T14:00:00;1999.90;;;999.90;;
19509;SDS011;9896;42.486;26.506;2023-07-24T14:02:25;1999.90;;;999.90;;
19509;SDS011;9896;42.486;26.506;2023-07-24T14:04:52;1999.90;;;999.90;;
19509;SDS011;9896;42.486;26.506;2023-07-24T14:07:18;1999.90;;;999.90;;
19509;SDS011;9896;42.486;26.506;2023-07-24T14:09:43;1999.90;;;999.90;;
19509;SDS011;9896;42.486;26.506;2023-07-24T14:12:09;1999.90;;;999.90;;